createdAt,value
2022-12-11T00:00:39.571Z,-0.87
2022-12-11T00:05:39.283Z,-0.75
2022-12-11T00:10:37.945Z,-0.75
2022-12-11T00:15:34.533Z,-0.79
2022-12-11T00:20:30.897Z,-0.71
2022-12-11T00:25:27.482Z,-0.78
2022-12-11T00:30:23.845Z,-0.79
2022-12-11T00:35:20.234Z,-0.77
2022-12-11T00:40:16.609Z,-0.81
2022-12-11T00:45:13.167Z,-0.82
2022-12-11T00:50:09.692Z,-0.85
2022-12-11T00:55:06.431Z,-0.86
2022-12-11T01:00:07.008Z,-0.80
2022-12-11T01:05:04.015Z,-0.80
2022-12-11T01:10:19.316Z,-0.77
2022-12-11T01:15:15.811Z,-0.71
2022-12-11T01:20:12.648Z,-0.76
2022-12-11T01:25:10.276Z,-0.77
2022-12-11T01:30:08.493Z,-0.72
2022-12-11T01:35:07.272Z,-0.82
2022-12-11T01:40:06.139Z,-0.74
2022-12-11T01:45:26.642Z,-0.72
2022-12-11T01:50:24.489Z,-0.68
2022-12-11T01:55:21.657Z,-0.63
2022-12-11T02:00:19.282Z,-0.65
2022-12-11T02:05:15.961Z,-0.65
2022-12-11T02:10:12.945Z,-0.66
2022-12-11T02:15:31.020Z,-0.79
2022-12-11T02:20:38.185Z,-0.84
2022-12-11T02:25:59.035Z,-0.89
2022-12-11T02:31:05.824Z,-0.90
2022-12-11T02:36:04.844Z,-0.71
2022-12-11T02:41:02.280Z,-0.70
2022-12-11T02:46:00.668Z,-0.66
2022-12-11T02:50:59.528Z,-0.69
2022-12-11T02:56:18.127Z,-0.62
2022-12-11T03:01:14.825Z,-0.68
2022-12-11T03:06:16.266Z,-0.68
2022-12-11T03:11:13.541Z,-0.66
2022-12-11T03:16:41.579Z,-0.62
2022-12-11T03:21:47.858Z,-0.63
2022-12-11T03:26:55.964Z,-0.63
2022-12-11T03:31:58.330Z,-0.60
2022-12-11T03:36:57.812Z,-0.59
2022-12-11T03:41:56.128Z,-0.58
2022-12-11T03:46:54.925Z,-0.66
2022-12-11T03:51:54.981Z,-0.76
2022-12-11T03:56:55.792Z,-0.71
2022-12-11T04:01:52.245Z,-0.81
2022-12-11T04:06:48.960Z,-0.75
2022-12-11T04:11:45.359Z,-0.69
2022-12-11T04:16:41.767Z,-0.72
2022-12-11T04:21:56.606Z,-0.74
2022-12-11T04:26:52.976Z,-0.70
2022-12-11T04:31:50.628Z,-0.62
2022-12-11T04:36:47.038Z,-0.60
2022-12-11T04:41:43.570Z,-0.63
2022-12-11T04:46:40.051Z,-0.62
2022-12-11T04:51:36.523Z,-0.72
2022-12-11T04:56:32.906Z,-0.65
2022-12-11T05:01:29.390Z,-0.59
2022-12-11T05:06:25.847Z,-0.54
2022-12-11T05:11:22.342Z,-0.54
2022-12-11T05:16:18.828Z,-0.52
2022-12-11T05:21:16.213Z,-0.57
2022-12-11T05:26:15.370Z,-0.55
2022-12-11T05:31:15.000Z,-0.81
2022-12-11T05:36:17.987Z,-0.74
2022-12-11T05:41:18.362Z,-0.69
2022-12-11T05:46:26.168Z,-0.62
2022-12-11T05:51:23.180Z,-0.75
2022-12-11T05:56:22.551Z,-0.74
2022-12-11T06:01:38.547Z,-0.66
2022-12-11T06:06:35.536Z,-0.65
2022-12-11T06:11:33.516Z,-0.61
2022-12-11T06:16:30.467Z,-0.57
2022-12-11T06:21:29.979Z,-0.89
2022-12-11T06:26:27.105Z,-1.05
2022-12-11T06:31:23.617Z,-1.29
2022-12-11T06:36:22.767Z,-1.33
2022-12-11T06:41:19.367Z,-1.37
2022-12-11T06:46:18.088Z,-1.44
2022-12-11T06:51:17.274Z,-1.40
2022-12-11T06:56:15.244Z,-1.42
2022-12-11T07:01:24.061Z,-1.50
2022-12-11T07:06:20.444Z,-1.46
2022-12-11T07:11:18.055Z,-1.50
2022-12-11T07:16:16.317Z,-1.51
2022-12-11T07:21:13.819Z,-1.46
2022-12-11T07:26:14.015Z,-1.48
2022-12-11T07:31:14.388Z,-1.51
2022-12-11T07:36:13.096Z,-1.62
2022-12-11T07:41:12.622Z,-1.63
2022-12-11T07:46:15.009Z,-1.66
2022-12-11T07:51:19.839Z,-1.64
2022-12-11T07:56:17.725Z,-1.61
2022-12-11T08:01:16.451Z,-1.57
2022-12-11T08:06:13.340Z,-1.58
2022-12-11T08:11:12.590Z,-1.61
2022-12-11T08:16:13.030Z,-1.72
2022-12-11T08:21:12.772Z,-1.59
2022-12-11T08:26:12.835Z,-1.39
2022-12-11T08:31:10.577Z,-1.47
2022-12-11T08:36:09.780Z,-1.40
2022-12-11T08:41:18.843Z,-1.53
2022-12-11T08:46:15.772Z,-1.45
2022-12-11T08:51:16.247Z,-1.24
2022-12-11T08:56:14.834Z,-1.35
2022-12-11T09:01:18.170Z,-1.47
2022-12-11T09:06:17.453Z,-1.56
2022-12-11T09:11:17.023Z,-1.59
2022-12-11T09:16:16.408Z,-1.56
2022-12-11T09:21:15.034Z,-1.69
2022-12-11T09:26:14.501Z,-1.64
2022-12-11T09:31:12.740Z,-1.74
2022-12-11T09:36:09.914Z,-1.73
2022-12-11T09:41:21.746Z,-1.63
2022-12-11T09:46:22.480Z,-1.66
2022-12-11T09:51:32.803Z,-1.71
2022-12-11T09:57:00.275Z,-1.74
2022-12-11T10:02:17.664Z,-1.65
2022-12-11T10:07:28.671Z,-1.79
2022-12-11T10:12:49.137Z,-1.70
2022-12-11T10:18:02.928Z,-1.62
2022-12-11T10:23:01.765Z,-1.58
2022-12-11T10:27:59.983Z,-1.61
2022-12-11T10:33:11.295Z,-1.59
2022-12-11T10:38:20.123Z,-1.63
2022-12-11T10:43:17.278Z,-1.53
2022-12-11T10:48:13.974Z,-1.38
2022-12-11T10:53:21.234Z,-1.33
2022-12-11T10:58:26.944Z,-1.15
2022-12-11T11:03:27.798Z,-1.00
2022-12-11T11:08:24.253Z,-0.83
2022-12-11T11:13:26.437Z,-0.66
2022-12-11T11:18:27.992Z,-0.61
2022-12-11T11:23:25.443Z,-0.58
2022-12-11T11:28:36.255Z,-0.71
2022-12-11T11:33:35.178Z,-0.89
2022-12-11T11:38:34.419Z,-0.76
2022-12-11T11:43:47.860Z,-0.64
2022-12-11T11:49:04.065Z,-0.58
2022-12-11T11:54:02.910Z,-0.60
2022-12-11T11:59:19.305Z,-0.49
2022-12-11T12:04:16.043Z,-0.40
2022-12-11T12:09:49.742Z,-0.31
2022-12-11T12:15:01.156Z,-0.29
2022-12-11T12:20:36.234Z,-0.26
2022-12-11T12:25:42.224Z,-0.24
2022-12-11T12:30:56.851Z,-0.22
2022-12-11T12:36:11.301Z,-0.20
2022-12-11T12:41:36.472Z,-0.22
2022-12-11T12:46:54.604Z,-0.20
2022-12-11T12:51:52.284Z,-0.19
2022-12-11T12:56:49.327Z,-0.21
2022-12-11T13:01:56.863Z,-0.31
2022-12-11T13:06:53.626Z,-0.26
2022-12-11T13:11:53.694Z,-0.26
2022-12-11T13:16:52.887Z,-0.20
2022-12-11T13:22:23.039Z,-0.08
2022-12-11T13:27:37.516Z,-0.17
2022-12-11T13:32:34.601Z,-0.20
2022-12-11T13:37:41.323Z,-0.21
2022-12-11T13:42:49.236Z,-0.19
2022-12-11T13:47:46.735Z,-0.26
2022-12-11T13:52:53.169Z,-0.19
2022-12-11T13:57:49.595Z,-0.18
2022-12-11T14:02:46.097Z,-0.21
2022-12-11T14:08:02.829Z,-0.27
2022-12-11T14:12:59.316Z,-0.19
2022-12-11T14:17:57.371Z,-0.25
2022-12-11T14:23:07.654Z,-0.47
2022-12-11T14:28:04.223Z,-0.55
2022-12-11T14:33:05.159Z,-0.71
2022-12-11T14:38:09.000Z,-0.65
2022-12-11T14:43:13.629Z,-0.78
2022-12-11T14:48:19.627Z,-0.65
2022-12-11T14:53:32.943Z,-0.55
2022-12-11T14:58:30.276Z,-0.58
2022-12-11T15:03:38.327Z,-0.60
2022-12-11T15:08:36.875Z,-0.81
2022-12-11T15:13:36.283Z,-0.74
2022-12-11T15:18:40.444Z,-0.85
2022-12-11T15:23:45.686Z,-0.80
2022-12-11T15:28:42.058Z,-0.75
2022-12-11T15:33:47.765Z,-0.65
2022-12-11T15:38:44.144Z,-0.56
2022-12-11T15:43:40.745Z,-0.52
2022-12-11T15:48:37.101Z,-0.55
2022-12-11T15:53:33.525Z,-0.51
2022-12-11T15:58:30.112Z,-0.50
2022-12-11T16:03:26.588Z,-0.43
2022-12-11T16:08:24.178Z,-0.42
2022-12-11T16:13:20.732Z,-0.45
2022-12-11T16:18:20.217Z,-0.39
2022-12-11T16:23:17.255Z,-0.39
2022-12-11T16:28:16.218Z,-0.36
2022-12-11T16:33:13.602Z,-0.39
2022-12-11T16:38:11.032Z,-0.43
2022-12-11T16:43:08.298Z,-0.44
2022-12-11T16:48:05.378Z,-0.44
2022-12-11T16:53:02.719Z,-0.49
2022-12-11T16:57:59.076Z,-0.37
2022-12-11T17:02:55.762Z,-0.38
2022-12-11T17:07:52.257Z,-0.44
2022-12-11T17:12:48.726Z,-0.52
2022-12-11T17:17:45.172Z,-0.50
2022-12-11T17:22:41.661Z,-0.57
2022-12-11T17:27:38.196Z,-0.69
2022-12-11T17:32:34.566Z,-0.72
2022-12-11T17:37:31.040Z,-0.73
2022-12-11T17:42:27.443Z,-0.71
2022-12-11T17:47:23.834Z,-0.69
2022-12-11T17:52:20.253Z,-0.69
2022-12-11T17:57:16.624Z,-0.69
2022-12-11T18:02:13.410Z,-0.67
2022-12-11T18:07:09.967Z,-0.69
2022-12-11T18:12:08.072Z,-0.68
2022-12-11T18:17:04.540Z,-0.62
2022-12-11T18:22:00.979Z,-0.71
2022-12-11T18:26:59.282Z,-0.73
2022-12-11T18:31:55.702Z,-0.72
2022-12-11T18:36:52.172Z,-0.78
2022-12-11T18:42:03.458Z,-0.75
2022-12-11T18:47:05.475Z,-0.65
2022-12-11T18:52:01.857Z,-0.72
2022-12-11T18:56:58.491Z,-0.64
2022-12-11T19:01:54.953Z,-0.69
2022-12-11T19:06:51.416Z,-0.79
2022-12-11T19:11:47.831Z,-0.91
2022-12-11T19:16:45.518Z,-1.01
2022-12-11T19:21:42.940Z,-0.94
2022-12-11T19:26:39.497Z,-0.92
2022-12-11T19:31:36.017Z,-1.04
2022-12-11T19:36:34.732Z,-0.97
2022-12-11T19:41:31.412Z,-0.98
2022-12-11T19:46:28.708Z,-0.94
2022-12-11T19:51:33.886Z,-0.89
2022-12-11T19:56:31.486Z,-0.84
2022-12-11T20:01:31.163Z,-0.84
2022-12-11T20:06:29.563Z,-0.82
2022-12-11T20:11:26.272Z,-0.72
2022-12-11T20:16:39.554Z,-0.81
2022-12-11T20:21:39.921Z,-0.83
2022-12-11T20:26:38.060Z,-1.04
2022-12-11T20:31:35.948Z,-1.02
2022-12-11T20:36:33.356Z,-1.03
2022-12-11T20:41:29.811Z,-0.91
2022-12-11T20:46:27.751Z,-1.01
2022-12-11T20:51:26.359Z,-1.07
2022-12-11T20:56:23.015Z,-0.89
2022-12-11T21:01:22.906Z,-0.85
2022-12-11T21:06:25.663Z,-0.87
2022-12-11T21:11:22.737Z,-0.93
2022-12-11T21:16:20.347Z,-0.80
2022-12-11T21:21:17.071Z,-0.78
2022-12-11T21:26:13.872Z,-0.73
2022-12-11T21:31:14.669Z,-0.73
2022-12-11T21:36:13.250Z,-0.61
2022-12-11T21:41:22.894Z,-0.72
2022-12-11T21:46:22.230Z,-0.75
2022-12-11T21:51:20.287Z,-0.74
2022-12-11T21:56:21.188Z,-0.79
2022-12-11T22:01:38.775Z,-0.83
2022-12-11T22:06:35.747Z,-0.83
2022-12-11T22:11:34.090Z,-0.86
2022-12-11T22:16:30.757Z,-0.88
2022-12-11T22:21:27.214Z,-1.06
2022-12-11T22:26:26.739Z,-0.97
2022-12-11T22:31:24.877Z,-0.91
2022-12-11T22:36:22.899Z,-0.98
2022-12-11T22:41:28.159Z,-0.95
2022-12-11T22:46:27.851Z,-0.95
2022-12-11T22:51:24.257Z,-0.91
2022-12-11T22:56:21.356Z,-0.98
2022-12-11T23:01:22.046Z,-1.04
2022-12-11T23:06:22.051Z,-1.02
2022-12-11T23:11:20.618Z,-1.02
2022-12-11T23:16:17.160Z,-1.05
2022-12-11T23:21:14.342Z,-0.99
2022-12-11T23:26:13.017Z,-0.97
2022-12-11T23:31:09.598Z,-0.94
2022-12-11T23:36:06.741Z,-1.04
2022-12-11T23:41:05.293Z,-1.01
2022-12-11T23:46:02.860Z,-1.01
2022-12-11T23:51:00.883Z,-1.02
2022-12-11T23:56:03.360Z,-1.10
